Time;durP1;ratioP1;P1;durP2;ratioP2;P2;SDS_P1;SDS_P2;PMS_P1;PMS_P2;Temp;Humidity;BMP_temperature;BMP_pressure;BME280_temperature;BME280_humidity;BME280_pressure;Samples;Min_cycle;Max_cycle;Signal;HPM_P1;HPM_P2
2024/04/16 00:01:06;;;;;;;10.00;5.77;;;;;;;17.31;100.00;99277.31;33490111;26;20004;-74
2024/04/16 00:16:09;;;;;;;8.70;5.97;;;;;;;17.24;100.00;99291.44;33538902;26;20447;-73
2024/04/16 00:31:11;;;;;;;11.40;6.63;;;;;;;16.51;100.00;99256.97;33468159;26;20010;-74
2024/04/16 00:46:13;;;;;;;12.40;6.63;;;;;;;16.94;100.00;99240.78;33552912;26;19999;-72
2024/04/16 01:01:16;;;;;;;17.83;7.90;;;;;;;17.04;100.00;99222.94;33570720;26;20014;-73
2024/04/16 01:16:18;;;;;;;17.30;7.80;;;;;;;16.97;100.00;99226.13;33542531;26;20014;-73
2024/04/16 01:31:21;;;;;;;13.53;8.17;;;;;;;16.80;100.00;99205.97;33533924;26;20018;-75
2024/04/16 01:46:25;;;;;;;16.80;8.13;;;;;;;16.81;100.00;99207.50;33541552;26;20018;-73
2024/04/16 02:01:28;;;;;;;12.87;8.97;;;;;;;16.58;100.00;99157.91;33474814;26;20070;-73
2024/04/16 02:16:30;;;;;;;16.27;8.13;;;;;;;16.51;100.00;99147.38;33491688;26;20471;-74
2024/04/16 02:31:32;;;;;;;16.00;8.53;;;;;;;16.38;100.00;99138.75;33534773;26;20405;-73
2024/04/16 02:46:35;;;;;;;16.40;8.47;;;;;;;16.39;100.00;99129.31;33529348;26;20008;-73
2024/04/16 03:01:37;;;;;;;19.27;9.93;;;;;;;16.50;100.00;99167.78;33528870;26;20015;-73
2024/04/16 03:16:40;;;;;;;12.73;8.63;;;;;;;16.27;100.00;99155.06;33497125;26;20080;-74
2024/04/16 03:31:42;;;;;;;11.03;8.00;;;;;;;16.73;100.00;99173.53;33555434;26;20008;-73
2024/04/16 03:46:45;;;;;;;13.80;7.27;;;;;;;17.01;100.00;99185.50;33544556;26;20085;-74
2024/04/16 04:01:47;;;;;;;16.87;7.40;;;;;;;17.52;100.00;99175.72;33466244;26;20036;-73
2024/04/16 04:16:50;;;;;;;13.37;6.87;;;;;;;17.91;100.00;99182.28;33539065;26;20011;-75
2024/04/16 04:31:52;;;;;;;17.60;6.80;;;;;;;18.30;100.00;99198.19;33590452;26;20351;-74
2024/04/16 04:46:54;;;;;;;14.07;5.77;;;;;;;19.01;100.00;99188.69;33557464;26;20003;-74
2024/04/16 05:01:58;;;;;;;11.52;5.50;;;;;;;19.75;100.00;99188.22;33550499;26;20008;-73
2024/04/16 05:17:01;;;;;;;4.03;3.57;;;;;;;20.13;100.00;99171.34;33478846;26;20084;-77
2024/04/16 05:32:08;;;;;;;9.35;4.28;;;;;;;20.73;100.00;99139.28;33538084;26;20062;-76
2024/04/16 05:47:13;;;;;;;9.45;4.13;;;;;;;21.02;100.00;99121.28;33510723;26;20011;-75
2024/04/16 06:02:15;;;;;;;6.13;3.40;;;;;;;21.91;100.00;99126.00;33490388;26;20014;-75
2024/04/16 06:17:18;;;;;;;8.35;3.03;;;;;;;22.37;100.00;99113.16;33478330;26;20055;-75
2024/04/16 06:32:20;;;;;;;8.60;3.75;;;;;;;22.13;100.00;99119.47;33594586;26;20115;-75
2024/04/16 06:47:22;;;;;;;9.00;3.45;;;;;;;22.31;100.00;99115.22;33564788;26;20022;-75
2024/04/16 07:02:25;;;;;;;8.10;3.28;;;;;;;23.54;93.77;99105.06;33582641;26;20018;-72
2024/04/16 07:17:30;;;;;;;4.87;2.70;;;;;;;24.33;84.51;99116.88;33464341;26;20004;-74
2024/04/16 07:32:33;;;;;;;6.60;2.90;;;;;;;25.01;76.78;99110.59;33543946;26;20022;-73
2024/04/16 07:47:36;;;;;;;9.00;2.63;;;;;;;26.41;68.06;99088.13;33490109;26;20014;-74
2024/04/16 08:02:39;;;;;;;7.25;3.50;;;;;;;26.27;66.61;99072.81;33466018;26;20023;-74
2024/04/16 08:17:41;;;;;;;;;;;;;;;27.60;62.87;99078.19;33573132;26;20086;-72
2024/04/16 08:32:47;;;;;;;10.32;3.10;;;;;;;26.94;63.81;99093.78;33589455;26;19926;-73
2024/04/16 08:47:52;;;;;;;10.40;2.95;;;;;;;28.21;60.99;99114.28;33518979;26;20073;-72
2024/04/16 09:02:54;;;;;;;7.78;2.45;;;;;;;28.54;54.88;99113.03;33507607;26;20038;-74
2024/04/16 09:18:03;;;;;;;10.88;3.20;;;;;;;30.11;51.05;99115.63;33501046;26;20004;-73
2024/04/16 09:33:09;;;;;;;14.10;3.85;;;;;;;30.78;48.77;99113.28;33488150;26;20026;-74
2024/04/16 09:48:24;;;;;;;9.98;3.47;;;;;;;30.85;49.43;99094.88;33487468;26;20004;-73
2024/04/16 10:03:27;;;;;;;36.38;5.18;;;;;;;30.56;50.34;99108.75;33578353;26;20000;-73
2024/04/16 10:18:29;;;;;;;8.52;2.47;;;;;;;30.49;47.80;99115.16;33498877;26;20014;-73
2024/04/16 10:33:34;;;;;;;8.27;3.22;;;;;;;32.59;46.97;99101.41;33446650;26;20447;-73
2024/04/16 10:48:39;;;;;;;8.07;3.03;;;;;;;32.82;45.03;99084.78;33504821;26;20013;-70
2024/04/16 11:03:41;;;;;;;10.38;3.60;;;;;;;33.67;43.33;99072.16;33453136;26;20438;-71
2024/04/16 11:18:45;;;;;;;4.70;2.85;;;;;;;34.05;42.25;99054.19;33491303;26;20057;-71
2024/04/16 11:33:47;;;;;;;17.20;3.15;;;;;;;34.48;40.33;99037.91;33470798;26;20101;-71
2024/04/16 11:48:51;;;;;;;83.88;8.75;;;;;;;32.91;42.18;99017.88;33483925;26;20019;-71
2024/04/16 12:03:54;;;;;;;7.82;2.20;;;;;;;31.37;41.38;99008.44;33538902;26;20096;-71
2024/04/16 12:18:56;;;;;;;7.10;2.20;;;;;;;30.87;42.07;98999.78;33504222;26;20007;-81
2024/04/16 12:34:01;;;;;;;10.02;2.40;;;;;;;30.67;42.60;98990.59;33468585;26;20043;-79
2024/04/16 12:49:05;;;;;;;4.72;2.08;;;;;;;30.53;42.72;98981.06;33465277;26;20000;-79
2024/04/16 13:04:07;;;;;;;6.43;2.35;;;;;;;30.63;42.96;98979.06;33451088;26;20008;-79
2024/04/16 13:19:13;;;;;;;51.22;4.28;;;;;;;30.24;43.88;98964.13;33531408;26;20016;-80
2024/04/16 13:34:15;;;;;;;7.15;2.25;;;;;;;30.26;44.50;98966.34;33557578;26;20015;-79
2024/04/16 13:49:18;;;;;;;7.85;2.30;;;;;;;30.15;43.49;98962.78;33537387;26;20004;-77
2024/04/16 14:04:20;;;;;;;8.60;2.97;;;;;;;29.80;43.03;98952.97;33481307;26;20008;-79
2024/04/16 14:19:23;;;;;;;6.28;2.55;;;;;;;29.50;43.12;98948.53;33504272;26;20000;-78
2024/04/16 14:34:25;;;;;;;4.22;2.80;;;;;;;28.74;43.96;98949.25;33538080;26;20013;-76
2024/04/16 14:49:28;;;;;;;5.20;2.20;;;;;;;28.32;44.56;98954.81;33490857;26;20008;-78
2024/04/16 15:04:30;;;;;;;8.32;2.53;;;;;;;27.86;46.19;98951.53;33499984;26;20018;-78
2024/04/16 15:19:33;;;;;;;4.93;2.90;;;;;;;27.34;47.28;98959.50;33520448;26;20351;-74
2024/04/16 15:34:35;;;;;;;;;;;;;;;27.13;48.00;98945.84;33502266;26;19999;-78
2024/04/16 15:49:38;;;;;;;6.82;3.05;;;;;;;26.53;50.20;98944.56;33493989;26;19932;-76
2024/04/16 16:04:40;;;;;;;8.55;4.18;;;;;;;26.14;51.54;98954.88;33461747;26;20090;-78
2024/04/16 16:19:44;;;;;;;5.40;3.90;;;;;;;25.79;52.79;98961.25;33501641;26;19999;-77
2024/04/16 16:34:59;;;;;;;5.37;3.57;;;;;;;25.33;54.54;98947.16;33493778;26;20327;-78
2024/04/16 16:50:01;;;;;;;8.85;3.65;;;;;;;25.04;55.41;98954.00;33500934;26;20000;-82
2024/04/16 17:05:04;;;;;;;10.13;3.37;;;;;;;24.60;57.46;98994.72;33546734;26;20432;-76
2024/04/16 17:20:06;;;;;;;7.93;3.17;;;;;;;23.94;66.95;99015.09;33535151;26;20018;-81
2024/04/16 17:35:09;;;;;;;10.60;3.20;;;;;;;23.15;90.76;99020.66;33587093;26;20000;-85
2024/04/16 17:50:11;;;;;;;8.95;2.60;;;;;;;22.68;100.00;99051.59;33583818;26;20494;-78
2024/04/16 18:05:14;;;;;;;6.88;3.47;;;;;;;22.24;100.00;99066.81;33573798;26;20007;-79
2024/04/16 18:20:16;;;;;;;8.23;3.20;;;;;;;21.77;100.00;99055.31;33524782;26;20046;-76
2024/04/16 18:35:18;;;;;;;11.27;4.13;;;;;;;21.47;100.00;99051.91;33556708;26;20039;-77
2024/04/16 18:50:21;;;;;;;14.95;4.03;;;;;;;21.16;100.00;99064.22;33545080;26;20478;-77
2024/04/16 19:05:23;;;;;;;13.60;4.18;;;;;;;20.79;100.00;99067.56;33565447;26;20035;-77
2024/04/16 19:20:26;;;;;;;11.38;3.80;;;;;;;20.59;100.00;99061.16;33606358;26;20000;-77
2024/04/16 19:35:28;;;;;;;13.52;5.50;;;;;;;20.25;100.00;99062.63;33567556;26;20443;-76
2024/04/16 19:50:31;;;;;;;11.60;4.50;;;;;;;19.92;100.00;99086.28;33624324;26;20015;-77
2024/04/16 20:05:35;;;;;;;7.40;3.58;;;;;;;19.51;100.00;99060.66;33604144;26;20080;-76
2024/04/16 20:20:40;;;;;;;;;;;;;;;19.11;100.00;99045.44;33616974;26;20017;-75
2024/04/16 20:35:42;;;;;;;9.50;4.33;;;;;;;18.95;100.00;99058.69;33550836;26;20349;-76
2024/04/16 20:50:45;;;;;;;13.27;5.00;;;;;;;18.99;100.00;99041.94;33594396;26;20475;-75
2024/04/16 21:05:59;;;;;;;10.65;4.88;;;;;;;19.11;100.00;99032.44;33582603;26;20106;-76
2024/04/16 21:21:02;;;;;;;9.00;4.65;;;;;;;19.40;100.00;99031.09;33593960;26;20003;-75
2024/04/16 21:36:04;;;;;;;10.55;5.43;;;;;;;19.14;100.00;99014.91;33569667;26;20036;-75
2024/04/16 21:51:07;;;;;;;15.55;6.05;;;;;;;19.21;100.00;99017.16;33549398;26;20023;-74
2024/04/16 22:06:09;;;;;;;11.45;5.35;;;;;;;18.86;100.00;99022.47;33528777;26;20022;-74
2024/04/16 22:21:11;;;;;;;13.32;6.63;;;;;;;18.55;100.00;98993.94;33543298;26;20044;-74
2024/04/16 22:36:13;;;;;;;12.93;5.47;;;;;;;18.47;100.00;98990.16;33556201;26;20015;-75
2024/04/16 22:51:19;;;;;;;14.50;5.23;;;;;;;18.22;100.00;98974.66;33516340;26;20026;-74
2024/04/16 23:06:21;;;;;;;15.67;5.67;;;;;;;17.99;100.00;98958.16;33475439;26;20008;-76
2024/04/16 23:21:23;;;;;;;11.93;5.50;;;;;;;17.91;100.00;98948.91;33487606;26;20018;-74
2024/04/16 23:36:25;;;;;;;13.63;6.33;;;;;;;17.95;100.00;98932.91;33464172;26;20007;-73
2024/04/16 23:51:28;;;;;;;13.10;6.07;;;;;;;17.90;100.00;98925.44;33497319;26;20350;-75
